Time;durP1;ratioP1;P1;durP2;ratioP2;P2;SDS_P1;SDS_P2;PMS_P1;PMS_P2;Temp;Humidity;BMP_temperature;BMP_pressure;BME280_temperature;BME280_humidity;BME280_pressure;Samples;Min_cycle;Max_cycle;Signal;HPM_P1;HPM_P2
2023/02/24 00:01:38;;;;;;;33.50;25.20;;;10.00;99.90;;;;;;5010562;28;20473;-67
2023/02/24 00:04:07;;;;;;;30.80;25.43;;;9.90;99.90;;;;;;5028624;28;20444;-67
2023/02/24 00:06:35;;;;;;;30.90;24.80;;;9.80;99.90;;;;;;5024526;28;20535;-68
2023/02/24 00:09:05;;;;;;;37.50;24.90;;;9.80;99.90;;;;;;5014186;28;20469;-68
2023/02/24 00:11:31;;;;;;;31.10;25.53;;;9.80;99.90;;;;;;5013465;28;20461;-67
2023/02/24 00:13:57;;;;;;;35.43;26.70;;;9.80;99.90;;;;;;5012343;28;20529;-67
2023/02/24 00:16:24;;;;;;;34.93;25.73;;;9.80;99.90;;;;;;5019182;28;20538;-68
2023/02/24 00:18:50;;;;;;;38.03;27.27;;;9.90;99.90;;;;;;5022837;28;20560;-68
2023/02/24 00:21:16;;;;;;;38.87;28.10;;;9.90;99.90;;;;;;5025130;28;20529;-68
2023/02/24 00:23:45;;;;;;;39.33;25.60;;;9.90;99.90;;;;;;5016281;28;20178;-68
2023/02/24 00:26:13;;;;;;;38.00;27.43;;;9.90;99.90;;;;;;5026106;28;20437;-67
2023/02/24 00:28:39;;;;;;;36.43;26.00;;;10.00;99.90;;;;;;5027103;28;20828;-66
2023/02/24 00:31:14;;;;;;;29.17;24.20;;;9.90;99.90;;;;;;5026791;28;20443;-67
2023/02/24 00:33:41;;;;;;;38.30;26.67;;;9.90;99.90;;;;;;5022385;28;20429;-67
2023/02/24 00:36:24;;;;;;;36.00;24.40;;;9.90;99.90;;;;;;5030533;28;20959;-68
2023/02/24 00:38:54;;;;;;;41.17;26.60;;;9.90;99.90;;;;;;5019767;28;20851;-68
2023/02/24 00:41:21;;;;;;;31.80;25.23;;;9.90;99.90;;;;;;5017996;28;20932;-68
2023/02/24 00:43:48;;;;;;;34.60;25.83;;;10.00;99.90;;;;;;5016583;28;20851;-68
2023/02/24 00:46:15;;;;;;;33.33;23.70;;;10.00;99.90;;;;;;5014593;28;20433;-68
2023/02/24 00:48:44;;;;;;;33.37;25.43;;;10.00;99.90;;;;;;5013832;28;20528;-68
2023/02/24 00:51:11;;;;;;;37.50;27.40;;;10.00;99.90;;;;;;5014427;28;20500;-68
2023/02/24 00:53:38;;;;;;;29.60;23.90;;;10.00;99.90;;;;;;5014351;28;20441;-68
2023/02/24 00:56:11;;;;;;;34.50;25.30;;;9.90;99.90;;;;;;5022327;28;20495;-68
2023/02/24 00:58:38;;;;;;;35.00;26.17;;;10.00;99.90;;;;;;5022681;28;20461;-69
2023/02/24 01:01:04;;;;;;;40.80;27.10;;;10.10;99.90;;;;;;5024602;28;20441;-68
2023/02/24 01:03:31;;;;;;;32.87;25.63;;;10.10;99.90;;;;;;5024821;28;20953;-68
2023/02/24 01:06:02;;;;;;;37.10;24.47;;;10.20;99.90;;;;;;5022268;28;20486;-68
2023/02/24 01:08:27;;;;;;;35.47;25.67;;;10.20;99.90;;;;;;5017001;28;20499;-68
2023/02/24 01:13:42;;;;;;;32.03;24.97;;;10.20;99.90;;;;;;5018740;28;20198;-68
2023/02/24 01:16:08;;;;;;;30.67;25.10;;;10.20;99.90;;;;;;5031415;28;20461;-68
2023/02/24 01:18:33;;;;;;;33.60;26.03;;;10.10;99.90;;;;;;5015337;28;20450;-68
2023/02/24 01:20:59;;;;;;;31.67;26.67;;;10.10;99.90;;;;;;5023483;28;20215;-68
2023/02/24 01:23:25;;;;;;;30.63;25.20;;;10.10;99.90;;;;;;5014060;28;20194;-68
2023/02/24 01:25:50;;;;;;;32.03;24.87;;;10.10;99.90;;;;;;5015559;28;20182;-67
2023/02/24 01:28:16;;;;;;;35.67;26.60;;;10.10;99.90;;;;;;5021060;28;20177;-67
2023/02/24 01:30:42;;;;;;;33.60;28.00;;;10.10;99.90;;;;;;5025185;28;20574;-67
2023/02/24 01:33:13;;;;;;;33.03;25.53;;;10.10;99.90;;;;;;5022763;28;20547;-68
2023/02/24 01:35:39;;;;;;;36.60;25.93;;;10.10;99.90;;;;;;5027541;28;20186;-68
2023/02/24 01:38:04;;;;;;;34.70;24.73;;;10.10;99.90;;;;;;5026192;28;20929;-68
2023/02/24 01:40:30;;;;;;;30.67;24.37;;;10.10;99.90;;;;;;5025031;28;20552;-66
2023/02/24 01:42:56;;;;;;;31.70;25.90;;;10.10;99.90;;;;;;5025114;28;20193;-67
2023/02/24 01:45:27;;;;;;;29.37;25.10;;;10.20;99.90;;;;;;5018454;28;20206;-67
2023/02/24 01:47:58;;;;;;;33.80;26.47;;;10.20;99.90;;;;;;5011160;28;20202;-67
2023/02/24 01:50:25;;;;;;;34.07;26.77;;;10.20;99.90;;;;;;5029304;28;20441;-67
2023/02/24 01:52:57;;;;;;;29.40;23.90;;;10.10;99.90;;;;;;5028163;28;20460;-67
2023/02/24 01:55:30;;;;;;;31.10;26.20;;;10.10;99.90;;;;;;5023680;28;20491;-67
2023/02/24 01:57:59;;;;;;;29.30;23.47;;;10.10;99.90;;;;;;5019321;28;20449;-67
2023/02/24 02:00:36;;;;;;;27.20;24.20;;;10.10;99.90;;;;;;5027341;28;20479;-67
2023/02/24 02:03:07;;;;;;;30.23;24.23;;;10.00;99.90;;;;;;5027877;28;20504;-66
2023/02/24 02:05:33;;;;;;;32.40;25.67;;;10.10;99.90;;;;;;5011435;28;20811;-68
2023/02/24 02:07:59;;;;;;;30.60;24.73;;;10.00;99.90;;;;;;5015324;28;20442;-67
2023/02/24 02:10:27;;;;;;;28.03;24.07;;;10.00;99.90;;;;;;5014900;28;20182;-67
2023/02/24 02:12:54;;;;;;;30.83;24.30;;;9.90;99.90;;;;;;5011829;28;20472;-67
2023/02/24 02:15:20;;;;;;;29.63;24.73;;;9.90;99.90;;;;;;5012787;28;20450;-66
2023/02/24 02:17:53;;;;;;;30.70;25.47;;;10.00;99.90;;;;;;5012896;28;20460;-67
2023/02/24 02:20:19;;;;;;;31.50;24.50;;;10.00;99.90;;;;;;5008016;28;20604;-67
2023/02/24 02:23:12;;;;;;;30.97;23.63;;;10.00;99.90;;;;;;5011940;28;20480;-67
2023/02/24 02:25:59;;;;;;;29.30;22.10;;;9.90;99.90;;;;;;5005340;28;20175;-67
2023/02/24 02:28:55;;;;;;;33.73;24.03;;;9.90;99.90;;;;;;5005092;28;20468;-67
2023/02/24 02:31:49;;;;;;;33.73;23.93;;;9.90;99.90;;;;;;5011630;28;20462;-67
2023/02/24 02:34:41;;;;;;;31.30;23.23;;;9.90;99.90;;;;;;5002854;28;20438;-68
2023/02/24 02:37:15;;;;;;;29.93;22.10;;;10.00;99.90;;;;;;5012649;28;20984;-67
2023/02/24 02:39:57;;;;;;;31.77;24.13;;;9.90;99.90;;;;;;5006748;28;20465;-67
2023/02/24 02:42:42;;;;;;;31.10;24.00;;;9.80;99.90;;;;;;5005752;28;20458;-68
2023/02/24 02:45:39;;;;;;;29.30;22.70;;;9.80;99.90;;;;;;5012417;28;20468;-67
2023/02/24 02:48:19;;;;;;;30.10;23.60;;;9.80;99.90;;;;;;5011881;28;20553;-67
2023/02/24 02:51:02;;;;;;;31.77;22.73;;;9.70;99.90;;;;;;5012048;28;20449;-68
2023/02/24 02:54:00;;;;;;;33.80;24.37;;;9.50;99.90;;;;;;5006796;28;20433;-67
2023/02/24 02:56:44;;;;;;;29.13;24.17;;;9.60;99.90;;;;;;5004364;28;20488;-67
2023/02/24 02:59:12;;;;;;;34.90;24.87;;;9.60;99.90;;;;;;5009782;28;20461;-67
2023/02/24 03:01:42;;;;;;;28.73;24.80;;;9.60;99.90;;;;;;5011192;28;20847;-67
2023/02/24 03:04:09;;;;;;;30.57;23.47;;;9.70;99.90;;;;;;5011490;28;20457;-67
2023/02/24 03:06:46;;;;;;;32.20;24.50;;;9.70;99.90;;;;;;5010413;28;20792;-68
2023/02/24 03:09:22;;;;;;;32.00;24.63;;;9.70;99.90;;;;;;5009829;28;20888;-67
2023/02/24 03:11:54;;;;;;;32.87;24.87;;;9.70;99.90;;;;;;5009733;28;20511;-68
2023/02/24 03:14:24;;;;;;;28.77;25.00;;;9.60;99.90;;;;;;5020284;28;20436;-67
2023/02/24 03:16:52;;;;;;;30.47;23.23;;;9.60;99.90;;;;;;5022965;28;20936;-67
2023/02/24 03:19:25;;;;;;;35.30;25.67;;;9.60;99.90;;;;;;5024818;28;20467;-67
2023/02/24 03:22:12;;;;;;;36.40;25.67;;;9.60;99.90;;;;;;5022256;28;21194;-67
2023/02/24 03:24:43;;;;;;;31.20;23.30;;;9.50;99.90;;;;;;5021405;28;20434;-68
2023/02/24 03:27:23;;;;;;;33.40;25.03;;;9.60;99.90;;;;;;5023279;28;21143;-67
2023/02/24 03:30:06;;;;;;;32.47;25.00;;;9.60;99.90;;;;;;5025415;28;20948;-67
2023/02/24 03:32:42;;;;;;;35.63;24.17;;;9.50;99.90;;;;;;5013398;28;20456;-67
2023/02/24 03:35:16;;;;;;;26.73;23.83;;;9.50;99.90;;;;;;5020960;28;20810;-68
2023/02/24 03:37:42;;;;;;;32.13;24.63;;;9.60;99.90;;;;;;5013308;28;20438;-68
2023/02/24 03:40:13;;;;;;;32.73;24.77;;;9.60;99.90;;;;;;5017550;28;20461;-68
2023/02/24 03:42:42;;;;;;;34.70;25.50;;;9.50;99.90;;;;;;5012787;28;20507;-66
2023/02/24 03:45:08;;;;;;;36.43;26.00;;;9.50;99.90;;;;;;5011517;28;20807;-66
2023/02/24 03:47:34;;;;;;;33.97;27.17;;;9.40;99.90;;;;;;5015501;28;20521;-66
2023/02/24 03:50:00;;;;;;;38.07;28.33;;;9.40;99.90;;;;;;5011904;28;21025;-67
2023/02/24 03:52:46;;;;;;;30.87;23.17;;;9.40;99.90;;;;;;5023764;28;20190;-67
2023/02/24 03:55:32;;;;;;;34.70;25.27;;;9.40;99.90;;;;;;5019125;28;20182;-67
2023/02/24 03:58:49;;;;;;;32.20;24.37;;;9.50;99.90;;;;;;5022171;28;20432;-67
2023/02/24 04:01:27;;;;;;;30.80;25.30;;;9.50;99.90;;;;;;4979083;28;20806;-67
2023/02/24 04:04:17;;;;;;;35.47;26.30;;;9.60;99.90;;;;;;5008768;28;20445;-66
2023/02/24 04:07:13;;;;;;;29.93;24.27;;;9.60;99.90;;;;;;5004589;28;20495;-68
2023/02/24 04:09:49;;;;;;;32.30;25.27;;;9.70;99.90;;;;;;5006785;28;20448;-67
2023/02/24 04:12:25;;;;;;;33.40;24.97;;;9.70;99.90;;;;;;5009527;28;20460;-67
2023/02/24 04:15:03;;;;;;;40.07;27.27;;;9.80;99.90;;;;;;5020311;28;20934;-67
2023/02/24 04:17:37;;;;;;;34.27;26.07;;;9.80;99.90;;;;;;5017375;28;20456;-67
2023/02/24 04:20:12;;;;;;;32.07;25.00;;;9.80;99.90;;;;;;5019840;28;20826;-67
2023/02/24 04:22:39;;;;;;;37.43;27.10;;;9.80;99.90;;;;;;5017090;28;20456;-67
2023/02/24 04:25:12;;;;;;;40.33;27.23;;;9.80;99.90;;;;;;5015855;28;20966;-67
2023/02/24 04:27:41;;;;;;;34.37;26.60;;;9.80;99.90;;;;;;5014675;28;20457;-67
2023/02/24 04:30:09;;;;;;;37.43;26.20;;;9.70;99.90;;;;;;5015481;28;20951;-68
2023/02/24 04:32:36;;;;;;;33.90;26.30;;;9.80;99.90;;;;;;5018892;28;20465;-67
2023/02/24 04:35:08;;;;;;;34.17;26.00;;;9.80;99.90;;;;;;5018559;28;20540;-68
2023/02/24 04:37:34;;;;;;;36.07;26.50;;;9.80;99.90;;;;;;5014095;28;20957;-67
2023/02/24 04:40:00;;;;;;;37.63;26.00;;;9.80;99.90;;;;;;5008877;28;20573;-67
2023/02/24 04:42:26;;;;;;;36.83;26.20;;;9.80;99.90;;;;;;5020488;28;20816;-68
2023/02/24 04:44:57;;;;;;;36.10;26.47;;;9.70;99.90;;;;;;5010962;28;20470;-66
2023/02/24 04:47:23;;;;;;;42.30;25.97;;;9.70;99.90;;;;;;5011060;28;20438;-67
2023/02/24 04:49:48;;;;;;;38.37;27.77;;;9.80;99.90;;;;;;5010743;28;20441;-67
2023/02/24 04:52:14;;;;;;;35.00;27.57;;;9.80;99.90;;;;;;5014373;28;20198;-68
2023/02/24 04:54:40;;;;;;;38.57;28.80;;;9.80;99.90;;;;;;5012923;28;20183;-67
2023/02/24 04:57:06;;;;;;;34.30;26.70;;;9.70;99.90;;;;;;5014378;28;20426;-68
2023/02/24 04:59:32;;;;;;;36.47;26.33;;;9.70;99.90;;;;;;5014080;28;20187;-68
2023/02/24 05:02:00;;;;;;;42.40;28.90;;;9.70;99.90;;;;;;5037369;22;21417;-67
2023/02/24 05:04:26;;;;;;;42.03;29.33;;;9.70;99.90;;;;;;5013696;28;20179;-67
2023/02/24 05:06:51;;;;;;;41.40;29.60;;;9.60;99.90;;;;;;5010402;28;20460;-68
2023/02/24 05:09:17;;;;;;;44.20;32.47;;;9.60;99.90;;;;;;5013375;28;20438;-68
2023/02/24 05:11:47;;;;;;;41.17;29.60;;;9.60;99.90;;;;;;5014066;28;20202;-67
2023/02/24 05:14:14;;;;;;;46.30;30.47;;;9.60;99.90;;;;;;5016471;28;20212;-68
2023/02/24 05:16:45;;;;;;;42.53;30.13;;;9.60;99.90;;;;;;5024720;28;20448;-67
2023/02/24 05:21:56;;;;;;;47.50;30.40;;;9.60;99.90;;;;;;5016971;28;20487;-67
2023/02/24 05:24:24;;;;;;;46.43;32.57;;;9.60;99.90;;;;;;5013831;28;20429;-68
2023/02/24 05:26:56;;;;;;;44.10;28.53;;;9.60;99.90;;;;;;5013852;28;20197;-68
2023/02/24 05:29:27;;;;;;;43.03;30.80;;;9.60;99.90;;;;;;5010253;28;20473;-67
2023/02/24 05:31:58;;;;;;;48.33;32.13;;;9.70;99.90;;;;;;5010729;28;20477;-68
2023/02/24 05:34:25;;;;;;;44.30;28.83;;;9.70;99.90;;;;;;5014840;28;20428;-67
2023/02/24 05:36:52;;;;;;;48.80;33.10;;;9.70;99.90;;;;;;5015829;28;20854;-68
2023/02/24 05:39:18;;;;;;;51.50;32.83;;;9.70;99.90;;;;;;5019648;28;20465;-67
2023/02/24 05:41:47;;;;;;;47.40;31.23;;;9.70;99.90;;;;;;5022996;28;20477;-68
2023/02/24 05:44:24;;;;;;;46.23;29.00;;;9.60;99.90;;;;;;5017614;28;20459;-67
2023/02/24 05:46:57;;;;;;;49.23;32.57;;;9.60;99.90;;;;;;5020915;28;21003;-68
2023/02/24 05:49:32;;;;;;;46.97;30.57;;;9.60;99.90;;;;;;5013370;28;20758;-68
2023/02/24 05:52:00;;;;;;;47.77;30.30;;;9.50;99.90;;;;;;5023154;28;20469;-67
2023/02/24 05:54:28;;;;;;;46.63;30.23;;;9.50;99.90;;;;;;5019968;28;21172;-67
2023/02/24 05:56:59;;;;;;;46.20;29.77;;;9.50;99.90;;;;;;5013227;28;20935;-67
2023/02/24 05:59:31;;;;;;;46.57;30.33;;;9.40;99.90;;;;;;5013644;28;20457;-67
2023/02/24 06:02:05;;;;;;;44.40;28.67;;;9.50;99.90;;;;;;5011643;28;20970;-68
2023/02/24 06:04:54;;;;;;;53.00;34.77;;;9.50;99.90;;;;;;5008212;28;20442;-67
2023/02/24 06:07:23;;;;;;;52.40;31.73;;;9.40;99.90;;;;;;5012709;28;20437;-67
2023/02/24 06:09:55;;;;;;;46.63;33.80;;;9.50;99.90;;;;;;5012147;28;20647;-68
2023/02/24 06:12:27;;;;;;;55.17;32.23;;;9.40;99.90;;;;;;5012374;28;20462;-67
2023/02/24 06:14:52;;;;;;;49.03;31.67;;;9.40;99.90;;;;;;5012830;28;20440;-68
2023/02/24 06:17:19;;;;;;;51.53;32.70;;;9.40;99.90;;;;;;5012382;28;20433;-67
2023/02/24 06:19:46;;;;;;;51.40;34.90;;;9.40;99.90;;;;;;5012327;28;20202;-68
2023/02/24 06:22:14;;;;;;;54.37;35.13;;;9.40;99.90;;;;;;5024026;28;20453;-67
2023/02/24 06:24:43;;;;;;;52.53;33.40;;;9.50;99.90;;;;;;5008080;28;20432;-67
2023/02/24 06:27:16;;;;;;;51.60;33.60;;;9.60;99.90;;;;;;5021845;28;20433;-67
2023/02/24 06:29:42;;;;;;;58.23;35.87;;;9.60;99.90;;;;;;5011039;28;20438;-67
2023/02/24 06:32:08;;;;;;;55.97;34.50;;;9.50;99.90;;;;;;5026051;28;20465;-67
2023/02/24 06:34:38;;;;;;;55.43;32.90;;;9.50;99.90;;;;;;5022175;28;20512;-68
2023/02/24 06:37:06;;;;;;;57.27;34.93;;;9.60;99.90;;;;;;5012879;28;20229;-68
2023/02/24 06:39:33;;;;;;;57.90;33.10;;;9.50;99.90;;;;;;5010398;28;20461;-67
2023/02/24 06:42:03;;;;;;;60.50;36.50;;;9.60;99.90;;;;;;5011195;28;20560;-68
2023/02/24 06:44:30;;;;;;;57.43;34.53;;;9.50;99.90;;;;;;5016603;28;20433;-66
2023/02/24 06:46:56;;;;;;;58.93;35.97;;;9.50;99.90;;;;;;5012107;28;20958;-68
2023/02/24 06:49:22;;;;;;;55.67;33.27;;;9.60;99.90;;;;;;5014265;28;20441;-67
2023/02/24 06:51:49;;;;;;;55.93;37.93;;;9.50;99.90;;;;;;5018572;28;22353;-67
2023/02/24 06:54:14;;;;;;;62.67;36.73;;;9.60;99.90;;;;;;5010698;28;20513;-67
2023/02/24 06:56:40;;;;;;;57.37;36.17;;;9.60;99.90;;;;;;5012008;28;20532;-67
2023/02/24 06:59:10;;;;;;;57.37;35.00;;;9.60;99.90;;;;;;5014716;28;20576;-67
2023/02/24 07:01:43;;;;;;;63.17;34.73;;;9.60;99.90;;;;;;5028599;28;20232;-68
2023/02/24 07:06:39;;;;;;;57.60;34.33;;;9.50;99.90;;;;;;5018251;28;20464;-67
2023/02/24 07:09:07;;;;;;;61.50;34.90;;;9.40;99.90;;;;;;5026194;28;20433;-67
2023/02/24 07:11:35;;;;;;;59.50;36.13;;;9.30;99.90;;;;;;5024681;28;20429;-68
2023/02/24 07:14:01;;;;;;;58.33;35.03;;;9.40;99.90;;;;;;5000311;28;21020;-67
2023/02/24 07:16:27;;;;;;;53.47;35.47;;;9.60;99.90;;;;;;5008669;28;20565;-68
2023/02/24 07:18:58;;;;;;;61.97;34.63;;;9.60;99.90;;;;;;5012346;28;20488;-66
2023/02/24 07:21:25;;;;;;;57.03;35.40;;;9.60;99.90;;;;;;5018119;28;20509;-67
2023/02/24 07:23:55;;;;;;;55.87;32.27;;;9.60;99.90;;;;;;5011851;28;21017;-66
2023/02/24 07:26:25;;;;;;;63.97;34.93;;;9.50;99.90;;;;;;5004110;28;20442;-68
2023/02/24 07:28:53;;;;;;;59.47;37.23;;;9.40;99.90;;;;;;4999563;28;20464;-67
2023/02/24 07:31:22;;;;;;;59.60;36.37;;;9.50;99.90;;;;;;5011568;28;20428;-67
2023/02/24 07:33:51;;;;;;;67.30;36.67;;;9.60;99.90;;;;;;4996192;28;22197;-68
2023/02/24 07:36:22;;;;;;;51.63;33.27;;;9.60;99.90;;;;;;4983126;28;21017;-68
2023/02/24 07:38:51;;;;;;;55.83;32.90;;;9.40;99.90;;;;;;5008536;28;20449;-67
2023/02/24 07:41:21;;;;;;;54.07;34.00;;;9.50;99.90;;;;;;5011569;28;20430;-67
2023/02/24 07:43:49;;;;;;;53.60;32.80;;;9.60;99.90;;;;;;5006601;28;20454;-67
2023/02/24 07:46:20;;;;;;;56.60;33.70;;;9.60;99.90;;;;;;5010695;28;20441;-67
2023/02/24 07:48:45;;;;;;;51.10;31.70;;;9.70;99.90;;;;;;5010770;28;20934;-67
2023/02/24 07:51:14;;;;;;;58.17;32.60;;;9.70;99.90;;;;;;5018105;28;20541;-67
2023/02/24 07:53:40;;;;;;;50.47;30.03;;;9.60;99.90;;;;;;5009600;28;20651;-67
2023/02/24 07:56:12;;;;;;;48.13;32.07;;;9.70;99.90;;;;;;5007789;28;20464;-67
2023/02/24 07:58:43;;;;;;;55.10;33.70;;;9.70;99.90;;;;;;5018199;28;20557;-68
2023/02/24 08:01:26;;;;;;;50.00;31.67;;;9.70;99.90;;;;;;5011114;28;20800;-67
2023/02/24 08:04:00;;;;;;;59.80;33.53;;;9.50;99.90;;;;;;5008143;28;20557;-67
2023/02/24 08:06:36;;;;;;;49.97;30.93;;;9.60;99.90;;;;;;5020304;28;20444;-67
2023/02/24 08:09:19;;;;;;;49.00;31.90;;;9.70;99.90;;;;;;5012524;28;20524;-67
2023/02/24 08:11:51;;;;;;;48.90;30.30;;;9.70;99.90;;;;;;5006527;28;20434;-67
2023/02/24 08:14:22;;;;;;;46.20;29.80;;;9.70;99.90;;;;;;5008767;28;20513;-68
2023/02/24 08:16:50;;;;;;;52.70;32.93;;;9.70;99.90;;;;;;5016408;28;20432;-68
2023/02/24 08:19:21;;;;;;;44.30;30.20;;;9.70;99.90;;;;;;5019919;28;20519;-68
2023/02/24 08:21:50;;;;;;;45.67;30.77;;;9.70;99.90;;;;;;5011111;28;20493;-68
2023/02/24 08:24:19;;;;;;;50.53;33.23;;;9.80;99.90;;;;;;5000294;28;20426;-68
2023/02/24 08:27:05;;;;;;;53.23;35.10;;;9.80;99.90;;;;;;5012629;28;21008;-67
2023/02/24 08:29:39;;;;;;;53.57;32.27;;;9.80;99.90;;;;;;5007324;28;20451;-68
2023/02/24 08:32:08;;;;;;;54.57;32.70;;;9.80;99.90;;;;;;5020954;28;20469;-68
2023/02/24 08:34:34;;;;;;;50.20;34.37;;;9.80;99.90;;;;;;5016679;28;20917;-67
2023/02/24 08:37:00;;;;;;;42.17;30.13;;;9.80;99.90;;;;;;5012201;28;20461;-69
2023/02/24 08:39:29;;;;;;;44.57;31.37;;;9.80;99.90;;;;;;5020478;28;20496;-67
2023/02/24 08:41:55;;;;;;;43.03;30.37;;;9.80;99.90;;;;;;5023913;28;20492;-68
2023/02/24 08:44:21;;;;;;;42.73;27.10;;;9.80;99.90;;;;;;5009227;28;20434;-68
2023/02/24 08:46:48;;;;;;;43.90;29.10;;;9.80;99.90;;;;;;5013321;28;20460;-71
2023/02/24 08:49:16;;;;;;;46.93;27.67;;;10.10;99.90;;;;;;5015088;28;20203;-67
2023/02/24 08:51:44;;;;;;;38.27;25.90;;;10.40;99.90;;;;;;5020093;28;20459;-68
2023/02/24 08:54:17;;;;;;;39.20;25.23;;;10.60;99.90;;;;;;5018632;28;20437;-68
2023/02/24 08:56:47;;;;;;;33.40;26.17;;;10.80;99.90;;;;;;5014235;28;20448;-68
2023/02/24 09:02:17;;;;;;;30.43;22.00;;;10.90;99.90;;;;;;5024788;28;20618;-68
2023/02/24 09:04:50;;;;;;;29.83;21.37;;;11.30;99.90;;;;;;5016534;28;20832;-68
2023/02/24 09:07:34;;;;;;;28.33;23.07;;;11.70;99.90;;;;;;5015851;28;20477;-67
2023/02/24 09:10:04;;;;;;;23.23;17.97;;;12.30;99.90;;;;;;5008658;28;20995;-68
2023/02/24 09:12:29;;;;;;;24.40;19.60;;;13.10;99.90;;;;;;5017475;28;20834;-67
2023/02/24 09:15:06;;;;;;;22.30;18.03;;;13.70;99.90;;;;;;5015562;28;20449;-67
2023/02/24 09:22:59;;;;;;;20.30;14.83;;;14.30;99.90;;;;;;5015073;28;20548;-67
2023/02/24 09:25:39;;;;;;;23.83;18.37;;;14.20;99.90;;;;;;5012484;28;20878;-68
2023/02/24 09:28:09;;;;;;;22.60;15.87;;;14.10;99.90;;;;;;5014144;28;21187;-70
2023/02/24 09:30:54;;;;;;;21.03;17.37;;;13.70;99.90;;;;;;5013675;28;20430;-68
2023/02/24 09:33:37;;;;;;;21.10;15.73;;;13.70;99.90;;;;;;5008101;28;20473;-67
2023/02/24 09:36:08;;;;;;;22.20;16.17;;;13.80;99.90;;;;;;5002308;28;20516;-68
2023/02/24 09:41:52;;;;;;;23.17;16.03;;;12.90;99.90;;;;;;5018727;28;20527;-68
2023/02/24 09:44:24;;;;;;;25.00;18.20;;;12.20;99.90;;;;;;5013521;28;20964;-68
2023/02/24 09:47:38;;;;;;;26.00;18.63;;;11.90;99.90;;;;;;5012034;28;20486;-69
2023/02/24 09:50:15;;;;;;;24.80;17.67;;;11.90;99.90;;;;;;4996063;28;20971;-68
2023/02/24 09:52:45;;;;;;;24.30;18.00;;;12.20;99.90;;;;;;5013012;28;20836;-67
2023/02/24 09:55:25;;;;;;;29.03;16.30;;;12.30;99.90;;;;;;5003492;28;20473;-68
2023/02/24 10:01:20;;;;;;;20.00;14.73;;;11.90;99.90;;;;;;5020767;28;20564;-67
2023/02/24 10:04:04;;;;;;;22.07;12.10;;;12.00;99.90;;;;;;5010070;28;20460;-67
2023/02/24 10:06:45;;;;;;;18.97;11.97;;;12.40;99.90;;;;;;5018453;28;20514;-67
2023/02/24 10:09:33;;;;;;;21.20;13.40;;;12.30;99.90;;;;;;5003480;28;20794;-68
2023/02/24 10:12:10;;;;;;;20.20;12.23;;;12.20;99.90;;;;;;5012002;28;20465;-68
2023/02/24 10:15:17;;;;;;;16.33;11.80;;;12.20;99.90;;;;;;5010840;28;20434;-68
2023/02/24 10:17:39;;;;;;;20.23;12.90;;;12.10;99.90;;;;;;5009661;28;20461;-69
2023/02/24 10:20:29;;;;;;;14.17;9.70;;;12.40;99.90;;;;;;5021030;28;20986;-67
2023/02/24 10:23:31;;;;;;;12.97;8.07;;;12.60;99.90;;;;;;5018405;28;20207;-71
2023/02/24 10:26:31;;;;;;;15.03;9.70;;;12.90;99.90;;;;;;5018969;28;20519;-67
2023/02/24 10:29:28;;;;;;;14.70;10.53;;;13.20;99.90;;;;;;5006467;28;20959;-68
2023/02/24 10:32:15;;;;;;;14.83;10.77;;;13.20;99.90;;;;;;5016156;28;20468;-69
2023/02/24 10:34:43;;;;;;;13.03;10.50;;;13.30;99.90;;;;;;5009816;28;20441;-69
2023/02/24 10:37:18;;;;;;;23.53;10.43;;;13.30;99.90;;;;;;5011637;28;20464;-67
2023/02/24 10:39:48;;;;;;;22.27;10.70;;;13.40;99.90;;;;;;5015891;28;20473;-68
2023/02/24 10:42:23;;;;;;;10.97;9.00;;;13.50;99.90;;;;;;5012349;28;20462;-68
2023/02/24 10:44:53;;;;;;;14.80;10.70;;;13.30;99.90;;;;;;5010629;28;20956;-68
2023/02/24 10:47:31;;;;;;;14.17;9.40;;;13.20;99.90;;;;;;5022547;28;20468;-68
2023/02/24 10:49:59;;;;;;;13.90;8.60;;;13.10;99.90;;;;;;5013626;28;20453;-67
2023/02/24 10:58:36;;;;;;;17.03;11.47;;;12.70;99.90;;;;;;5011734;28;20556;-67
2023/02/24 11:02:05;;;;;;;17.50;10.93;;;12.50;99.90;;;;;;5013015;28;20473;-67
2023/02/24 11:07:08;;;;;;;20.80;13.07;;;12.10;99.90;;;;;;5006442;28;20441;-68
2023/02/24 11:09:42;;;;;;;27.03;16.20;;;11.90;99.90;;;;;;5010613;28;20532;-69
2023/02/24 11:17:58;;;;;;;27.53;14.60;;;11.90;99.90;;;;;;5003826;28;21051;-68
2023/02/24 11:20:34;;;;;;;24.30;14.30;;;11.80;99.90;;;;;;5007582;28;20501;-66
2023/02/24 11:23:03;;;;;;;21.27;14.90;;;11.80;99.90;;;;;;5011667;28;20506;-66
2023/02/24 11:25:40;;;;;;;19.10;13.50;;;11.80;99.90;;;;;;5010688;28;20459;-67
2023/02/24 11:28:50;;;;;;;20.63;14.57;;;11.80;99.90;;;;;;5012013;28;20437;-66
2023/02/24 11:31:57;;;;;;;24.63;13.47;;;11.70;99.90;;;;;;4996100;28;20792;-65
2023/02/24 11:34:48;;;;;;;27.27;15.50;;;11.70;99.90;;;;;;5009214;28;20504;-67
2023/02/24 11:37:44;;;;;;;27.90;14.63;;;11.70;99.90;;;;;;5011835;28;20433;-67
2023/02/24 11:40:23;;;;;;;22.87;14.47;;;11.80;99.90;;;;;;5011236;28;20465;-67
2023/02/24 11:42:57;;;;;;;26.80;15.80;;;11.70;99.90;;;;;;5011433;28;20532;-67
2023/02/24 11:45:41;;;;;;;19.93;14.07;;;11.60;99.90;;;;;;5009340;28;20804;-69
2023/02/24 11:48:31;;;;;;;29.10;15.47;;;11.60;99.90;;;;;;5011730;28;20425;-69
2023/02/24 11:51:06;;;;;;;26.17;15.03;;;11.70;99.90;;;;;;5010522;28;20911;-69
2023/02/24 11:53:49;;;;;;;19.27;14.43;;;11.80;99.90;;;;;;5009673;28;20461;-68
2023/02/24 11:56:40;;;;;;;20.97;13.10;;;11.90;99.90;;;;;;5011464;28;20433;-69
2023/02/24 11:59:29;;;;;;;19.07;12.33;;;12.00;99.90;;;;;;5011034;28;20903;-70
2023/02/24 12:02:04;;;;;;;20.97;13.50;;;12.00;99.90;;;;;;5009291;28;20453;-68
2023/02/24 12:04:39;;;;;;;17.10;11.87;;;12.10;99.90;;;;;;5012695;28;20425;-67
2023/02/24 12:07:13;;;;;;;23.70;14.43;;;12.20;99.90;;;;;;5014398;28;20417;-68
2023/02/24 12:09:53;;;;;;;22.17;12.97;;;12.40;99.90;;;;;;5015040;28;20413;-68
2023/02/24 12:12:29;;;;;;;22.73;12.27;;;13.30;99.90;;;;;;5015536;28;20443;-72
2023/02/24 12:14:58;;;;;;;22.93;14.40;;;13.70;99.90;;;;;;5012235;28;20523;-68
2023/02/24 12:17:37;;;;;;;28.60;15.53;;;13.80;99.90;;;;;;5015405;28;20770;-69
2023/02/24 12:20:18;;;;;;;21.67;14.40;;;14.10;99.90;;;;;;5024598;28;20848;-68
2023/02/24 12:23:22;;;;;;;15.00;11.43;;;15.10;99.90;;;;;;5007959;28;20929;-68
2023/02/24 12:25:57;;;;;;;16.80;11.23;;;15.30;99.90;;;;;;4981284;28;20530;-68
2023/02/24 12:28:32;;;;;;;15.50;11.67;;;15.30;99.90;;;;;;5016243;28;20460;-69
2023/02/24 12:31:11;;;;;;;16.80;11.30;;;14.80;99.90;;;;;;5016238;28;20440;-68
2023/02/24 12:33:50;;;;;;;18.23;11.30;;;14.30;99.90;;;;;;5011068;28;20775;-68
2023/02/24 12:36:36;;;;;;;19.57;10.50;;;14.30;99.90;;;;;;5010844;28;22337;-69
2023/02/24 12:39:12;;;;;;;13.20;9.70;;;15.00;99.90;;;;;;5011104;28;20441;-69
2023/02/24 12:42:06;;;;;;;17.30;10.30;;;16.50;99.90;;;;;;5011919;28;20440;-68
2023/02/24 12:44:34;;;;;;;13.60;11.57;;;16.90;99.90;;;;;;5008975;28;20426;-68
2023/02/24 12:47:03;;;;;;;16.63;11.47;;;16.60;99.90;;;;;;5017541;28;20468;-68
2023/02/24 12:50:00;;;;;;;12.60;9.40;;;16.60;99.90;;;;;;5012892;28;20484;-68
2023/02/24 12:53:18;;;;;;;13.93;10.50;;;17.00;99.90;;;;;;5003513;28;20981;-68
2023/02/24 12:56:07;;;;;;;15.27;8.50;;;18.40;99.90;;;;;;5010824;28;20440;-69
2023/02/24 12:58:36;;;;;;;15.30;9.77;;;18.20;99.90;;;;;;5006740;28;20430;-69
2023/02/24 13:01:15;;;;;;;15.83;11.30;;;17.60;99.90;;;;;;5012902;28;20465;-67
2023/02/24 13:03:59;;;;;;;18.10;10.23;;;16.30;99.90;;;;;;5009535;28;20551;-68
2023/02/24 13:06:44;;;;;;;16.17;9.87;;;15.50;99.90;;;;;;5011482;28;20445;-69
2023/02/24 13:09:23;;;;;;;14.37;9.93;;;14.60;99.90;;;;;;5010135;28;20512;-68
2023/02/24 13:11:57;;;;;;;18.40;12.53;;;14.30;99.90;;;;;;5019978;28;21009;-69
2023/02/24 13:14:35;;;;;;;16.70;10.23;;;14.10;99.90;;;;;;5010413;28;20469;-69
2023/02/24 13:17:10;;;;;;;19.63;12.00;;;13.60;99.90;;;;;;5013195;28;21008;-69
2023/02/24 13:19:42;;;;;;;16.43;10.53;;;13.30;99.90;;;;;;5018483;28;20460;-69
2023/02/24 13:22:31;;;;;;;17.77;12.13;;;13.30;99.90;;;;;;5018968;28;20545;-69
2023/02/24 13:25:02;;;;;;;14.57;9.27;;;13.30;99.90;;;;;;5010444;28;20573;-68
2023/02/24 13:27:34;;;;;;;19.40;10.00;;;13.00;99.90;;;;;;5012327;28;20470;-69
2023/02/24 13:30:23;;;;;;;20.47;13.73;;;12.90;99.90;;;;;;5012336;28;20572;-68
2023/02/24 13:33:01;;;;;;;11.50;8.27;;;12.90;99.90;;;;;;5013036;28;20966;-68
2023/02/24 13:35:28;;;;;;;18.13;8.50;;;12.90;99.90;;;;;;5006906;28;20976;-68
2023/02/24 13:37:54;;;;;;;17.03;8.20;;;12.80;99.90;;;;;;5011573;28;20445;-69
2023/02/24 13:40:22;;;;;;;21.40;8.93;;;12.60;99.90;;;;;;5015651;28;20458;-68
2023/02/24 13:43:00;;;;;;;19.00;7.87;;;12.60;99.90;;;;;;5011231;28;20202;-69
2023/02/24 13:45:53;;;;;;;22.00;9.27;;;12.70;99.90;;;;;;5010327;28;20448;-69